sensor_id;sensor_type;location;lat;lon;timestamp;P1;durP1;ratioP1;P2;durP2;ratioP2
54139;SDS011;40046;53.254;5.900;2022-12-20T00:00:27;14.98;;;4.93;;
54139;SDS011;40046;53.254;5.900;2022-12-20T00:02:53;7.43;;;4.03;;
54139;SDS011;40046;53.254;5.900;2022-12-20T00:05:19;7.90;;;4.07;;
54139;SDS011;40046;53.254;5.900;2022-12-20T00:07:45;10.23;;;4.57;;
54139;SDS011;40046;53.254;5.900;2022-12-20T00:10:12;7.72;;;4.15;;
54139;SDS011;40046;53.254;5.900;2022-12-20T00:12:38;7.68;;;4.68;;
54139;SDS011;40046;53.254;5.900;2022-12-20T00:15:04;10.48;;;3.72;;
54139;SDS011;40046;53.254;5.900;2022-12-20T00:17:30;9.02;;;4.13;;
54139;SDS011;40046;53.254;5.900;2022-12-20T00:19:57;11.93;;;5.40;;
54139;SDS011;40046;53.254;5.900;2022-12-20T00:22:23;8.55;;;4.20;;
54139;SDS011;40046;53.254;5.900;2022-12-20T00:24:49;7.13;;;3.75;;
54139;SDS011;40046;53.254;5.900;2022-12-20T00:27:15;8.07;;;3.78;;
54139;SDS011;40046;53.254;5.900;2022-12-20T00:29:41;8.23;;;4.15;;
54139;SDS011;40046;53.254;5.900;2022-12-20T00:32:07;8.23;;;3.65;;
54139;SDS011;40046;53.254;5.900;2022-12-20T00:34:34;10.27;;;3.75;;
54139;SDS011;40046;53.254;5.900;2022-12-20T00:37:01;5.75;;;3.45;;
54139;SDS011;40046;53.254;5.900;2022-12-20T00:39:28;6.85;;;3.80;;
54139;SDS011;40046;53.254;5.900;2022-12-20T00:41:54;9.95;;;4.22;;
54139;SDS011;40046;53.254;5.900;2022-12-20T00:44:20;6.20;;;2.83;;
54139;SDS011;40046;53.254;5.900;2022-12-20T00:46:46;6.32;;;3.50;;
54139;SDS011;40046;53.254;5.900;2022-12-20T00:49:12;6.45;;;3.40;;
54139;SDS011;40046;53.254;5.900;2022-12-20T00:51:39;6.90;;;4.40;;
54139;SDS011;40046;53.254;5.900;2022-12-20T00:54:05;6.63;;;3.20;;
54139;SDS011;40046;53.254;5.900;2022-12-20T00:56:32;6.53;;;3.70;;
54139;SDS011;40046;53.254;5.900;2022-12-20T00:58:58;7.97;;;4.30;;
54139;SDS011;40046;53.254;5.900;2022-12-20T01:01:25;8.75;;;3.80;;
54139;SDS011;40046;53.254;5.900;2022-12-20T01:03:52;7.10;;;3.58;;
54139;SDS011;40046;53.254;5.900;2022-12-20T01:06:19;7.68;;;4.85;;
54139;SDS011;40046;53.254;5.900;2022-12-20T01:08:45;12.52;;;4.70;;
54139;SDS011;40046;53.254;5.900;2022-12-20T01:11:13;6.63;;;4.45;;
54139;SDS011;40046;53.254;5.900;2022-12-20T01:13:40;5.53;;;3.83;;
54139;SDS011;40046;53.254;5.900;2022-12-20T01:16:08;9.63;;;3.60;;
54139;SDS011;40046;53.254;5.900;2022-12-20T01:18:35;8.15;;;4.13;;
54139;SDS011;40046;53.254;5.900;2022-12-20T01:21:06;9.00;;;3.80;;
54139;SDS011;40046;53.254;5.900;2022-12-20T01:23:32;8.45;;;4.45;;
54139;SDS011;40046;53.254;5.900;2022-12-20T01:25:59;8.73;;;3.85;;
54139;SDS011;40046;53.254;5.900;2022-12-20T01:28:26;8.30;;;4.38;;
54139;SDS011;40046;53.254;5.900;2022-12-20T01:30:52;8.15;;;4.25;;
54139;SDS011;40046;53.254;5.900;2022-12-20T01:33:18;9.05;;;3.30;;
54139;SDS011;40046;53.254;5.900;2022-12-20T01:35:58;8.02;;;3.83;;
54139;SDS011;40046;53.254;5.900;2022-12-20T01:38:24;6.10;;;3.55;;
54139;SDS011;40046;53.254;5.900;2022-12-20T01:40:50;8.95;;;3.42;;
54139;SDS011;40046;53.254;5.900;2022-12-20T01:43:17;7.00;;;3.60;;
54139;SDS011;40046;53.254;5.900;2022-12-20T01:45:44;6.45;;;3.55;;
54139;SDS011;40046;53.254;5.900;2022-12-20T01:48:11;7.55;;;4.25;;
54139;SDS011;40046;53.254;5.900;2022-12-20T01:50:39;9.38;;;4.22;;
54139;SDS011;40046;53.254;5.900;2022-12-20T01:53:05;8.63;;;4.35;;
54139;SDS011;40046;53.254;5.900;2022-12-20T01:55:31;6.32;;;3.40;;
54139;SDS011;40046;53.254;5.900;2022-12-20T01:57:59;8.15;;;3.45;;
54139;SDS011;40046;53.254;5.900;2022-12-20T02:00:26;7.70;;;3.97;;
54139;SDS011;40046;53.254;5.900;2022-12-20T02:02:53;5.18;;;3.80;;
54139;SDS011;40046;53.254;5.900;2022-12-20T02:05:21;12.32;;;3.28;;
54139;SDS011;40046;53.254;5.900;2022-12-20T02:07:48;5.45;;;3.45;;
54139;SDS011;40046;53.254;5.900;2022-12-20T02:10:15;7.70;;;3.78;;
54139;SDS011;40046;53.254;5.900;2022-12-20T02:12:45;5.47;;;3.05;;
54139;SDS011;40046;53.254;5.900;2022-12-20T02:15:29;6.25;;;3.28;;
54139;SDS011;40046;53.254;5.900;2022-12-20T02:18:12;7.68;;;3.88;;
54139;SDS011;40046;53.254;5.900;2022-12-20T02:31:24;6.20;;;2.83;;
54139;SDS011;40046;53.254;5.900;2022-12-20T02:33:52;6.28;;;3.67;;
54139;SDS011;40046;53.254;5.900;2022-12-20T02:36:19;7.03;;;3.58;;
54139;SDS011;40046;53.254;5.900;2022-12-20T02:38:49;8.07;;;3.90;;
54139;SDS011;40046;53.254;5.900;2022-12-20T02:43:43;7.18;;;3.92;;
54139;SDS011;40046;53.254;5.900;2022-12-20T02:46:29;7.20;;;3.78;;
54139;SDS011;40046;53.254;5.900;2022-12-20T02:48:57;6.75;;;3.80;;
54139;SDS011;40046;53.254;5.900;2022-12-20T02:51:25;5.55;;;3.80;;
54139;SDS011;40046;53.254;5.900;2022-12-20T02:53:54;8.20;;;4.30;;
54139;SDS011;40046;53.254;5.900;2022-12-20T02:56:23;8.02;;;4.35;;
54139;SDS011;40046;53.254;5.900;2022-12-20T02:59:01;9.32;;;4.22;;
54139;SDS011;40046;53.254;5.900;2022-12-20T03:01:29;5.97;;;3.70;;
54139;SDS011;40046;53.254;5.900;2022-12-20T03:03:56;9.27;;;4.95;;
54139;SDS011;40046;53.254;5.900;2022-12-20T03:06:23;9.15;;;3.92;;
54139;SDS011;40046;53.254;5.900;2022-12-20T03:08:50;9.45;;;4.10;;
54139;SDS011;40046;53.254;5.900;2022-12-20T03:11:16;7.63;;;3.50;;
54139;SDS011;40046;53.254;5.900;2022-12-20T03:13:44;5.97;;;3.70;;
54139;SDS011;40046;53.254;5.900;2022-12-20T03:16:11;7.65;;;3.88;;
54139;SDS011;40046;53.254;5.900;2022-12-20T03:18:37;9.63;;;4.80;;
54139;SDS011;40046;53.254;5.900;2022-12-20T03:21:03;7.05;;;4.22;;
54139;SDS011;40046;53.254;5.900;2022-12-20T03:23:30;9.38;;;4.30;;
54139;SDS011;40046;53.254;5.900;2022-12-20T03:25:56;7.30;;;4.07;;
54139;SDS011;40046;53.254;5.900;2022-12-20T03:28:33;7.10;;;3.45;;
54139;SDS011;40046;53.254;5.900;2022-12-20T03:30:59;6.57;;;3.92;;
54139;SDS011;40046;53.254;5.900;2022-12-20T03:33:25;7.47;;;3.75;;
54139;SDS011;40046;53.254;5.900;2022-12-20T03:35:52;6.28;;;3.55;;
54139;SDS011;40046;53.254;5.900;2022-12-20T03:38:19;9.88;;;4.10;;
54139;SDS011;40046;53.254;5.900;2022-12-20T03:40:45;7.18;;;4.13;;
54139;SDS011;40046;53.254;5.900;2022-12-20T03:43:16;7.05;;;3.90;;
54139;SDS011;40046;53.254;5.900;2022-12-20T03:45:43;6.97;;;4.05;;
54139;SDS011;40046;53.254;5.900;2022-12-20T03:48:10;8.23;;;4.63;;
54139;SDS011;40046;53.254;5.900;2022-12-20T03:50:36;8.75;;;4.20;;
54139;SDS011;40046;53.254;5.900;2022-12-20T03:53:03;10.57;;;4.10;;
54139;SDS011;40046;53.254;5.900;2022-12-20T03:55:30;7.13;;;3.70;;
54139;SDS011;40046;53.254;5.900;2022-12-20T03:57:56;8.30;;;4.32;;
54139;SDS011;40046;53.254;5.900;2022-12-20T04:00:28;5.65;;;3.70;;
54139;SDS011;40046;53.254;5.900;2022-12-20T04:03:09;9.45;;;4.30;;
54139;SDS011;40046;53.254;5.900;2022-12-20T04:05:35;8.77;;;5.57;;
54139;SDS011;40046;53.254;5.900;2022-12-20T04:08:02;7.68;;;4.97;;
54139;SDS011;40046;53.254;5.900;2022-12-20T04:10:28;10.10;;;4.15;;
54139;SDS011;40046;53.254;5.900;2022-12-20T04:12:54;7.03;;;3.95;;
54139;SDS011;40046;53.254;5.900;2022-12-20T04:15:20;6.55;;;4.10;;
54139;SDS011;40046;53.254;5.900;2022-12-20T04:17:47;6.85;;;3.33;;
54139;SDS011;40046;53.254;5.900;2022-12-20T04:20:14;10.00;;;4.22;;
54139;SDS011;40046;53.254;5.900;2022-12-20T04:22:46;7.53;;;4.25;;
54139;SDS011;40046;53.254;5.900;2022-12-20T04:25:14;6.72;;;4.35;;
54139;SDS011;40046;53.254;5.900;2022-12-20T04:27:40;6.95;;;4.00;;
54139;SDS011;40046;53.254;5.900;2022-12-20T04:30:07;9.40;;;3.88;;
54139;SDS011;40046;53.254;5.900;2022-12-20T04:32:33;7.90;;;4.13;;
54139;SDS011;40046;53.254;5.900;2022-12-20T04:34:59;8.20;;;4.55;;
54139;SDS011;40046;53.254;5.900;2022-12-20T04:37:26;10.18;;;4.70;;
54139;SDS011;40046;53.254;5.900;2022-12-20T04:39:53;9.05;;;4.10;;
54139;SDS011;40046;53.254;5.900;2022-12-20T04:42:24;10.20;;;4.50;;
54139;SDS011;40046;53.254;5.900;2022-12-20T04:44:52;6.03;;;3.90;;
54139;SDS011;40046;53.254;5.900;2022-12-20T04:47:24;9.77;;;4.57;;
54139;SDS011;40046;53.254;5.900;2022-12-20T04:49:52;7.95;;;4.55;;
54139;SDS011;40046;53.254;5.900;2022-12-20T04:52:18;7.38;;;5.07;;
54139;SDS011;40046;53.254;5.900;2022-12-20T04:55:03;6.50;;;4.30;;
54139;SDS011;40046;53.254;5.900;2022-12-20T04:57:32;8.88;;;4.60;;
54139;SDS011;40046;53.254;5.900;2022-12-20T05:00:02;6.75;;;4.13;;
54139;SDS011;40046;53.254;5.900;2022-12-20T05:02:40;6.07;;;4.20;;
54139;SDS011;40046;53.254;5.900;2022-12-20T05:05:09;9.13;;;4.30;;
54139;SDS011;40046;53.254;5.900;2022-12-20T05:07:43;10.13;;;4.93;;
54139;SDS011;40046;53.254;5.900;2022-12-20T05:10:09;8.05;;;4.85;;
54139;SDS011;40046;53.254;5.900;2022-12-20T05:12:37;6.15;;;4.15;;
54139;SDS011;40046;53.254;5.900;2022-12-20T05:15:04;6.90;;;4.18;;
54139;SDS011;40046;53.254;5.900;2022-12-20T05:17:32;7.70;;;4.32;;
54139;SDS011;40046;53.254;5.900;2022-12-20T05:19:58;6.75;;;3.50;;
54139;SDS011;40046;53.254;5.900;2022-12-20T05:22:24;5.75;;;3.35;;
54139;SDS011;40046;53.254;5.900;2022-12-20T05:25:11;8.10;;;4.40;;
54139;SDS011;40046;53.254;5.900;2022-12-20T05:28:01;6.72;;;4.13;;
54139;SDS011;40046;53.254;5.900;2022-12-20T05:30:32;5.72;;;3.50;;
54139;SDS011;40046;53.254;5.900;2022-12-20T05:32:58;7.10;;;4.22;;
54139;SDS011;40046;53.254;5.900;2022-12-20T05:35:25;5.95;;;4.03;;
54139;SDS011;40046;53.254;5.900;2022-12-20T05:37:58;5.80;;;3.53;;
54139;SDS011;40046;53.254;5.900;2022-12-20T05:40:24;5.70;;;3.47;;
54139;SDS011;40046;53.254;5.900;2022-12-20T05:42:51;8.20;;;4.55;;
54139;SDS011;40046;53.254;5.900;2022-12-20T05:45:19;8.82;;;3.92;;
54139;SDS011;40046;53.254;5.900;2022-12-20T05:47:55;9.68;;;3.78;;
54139;SDS011;40046;53.254;5.900;2022-12-20T05:50:22;8.45;;;4.00;;
54139;SDS011;40046;53.254;5.900;2022-12-20T05:53:19;5.22;;;3.47;;
54139;SDS011;40046;53.254;5.900;2022-12-20T05:55:50;7.90;;;4.05;;
54139;SDS011;40046;53.254;5.900;2022-12-20T05:58:18;7.13;;;3.92;;
54139;SDS011;40046;53.254;5.900;2022-12-20T06:00:51;7.70;;;3.42;;
54139;SDS011;40046;53.254;5.900;2022-12-20T06:03:17;5.00;;;3.60;;
54139;SDS011;40046;53.254;5.900;2022-12-20T06:05:44;7.00;;;3.42;;
54139;SDS011;40046;53.254;5.900;2022-12-20T06:08:15;8.48;;;4.00;;
54139;SDS011;40046;53.254;5.900;2022-12-20T06:10:41;7.05;;;3.70;;
54139;SDS011;40046;53.254;5.900;2022-12-20T06:13:08;16.77;;;5.05;;
54139;SDS011;40046;53.254;5.900;2022-12-20T06:15:36;9.15;;;3.45;;
54139;SDS011;40046;53.254;5.900;2022-12-20T06:18:03;5.78;;;3.85;;
54139;SDS011;40046;53.254;5.900;2022-12-20T06:20:30;8.00;;;4.05;;
54139;SDS011;40046;53.254;5.900;2022-12-20T06:22:59;8.65;;;3.97;;
54139;SDS011;40046;53.254;5.900;2022-12-20T06:25:31;6.20;;;3.53;;
54139;SDS011;40046;53.254;5.900;2022-12-20T06:27:57;9.10;;;4.05;;
54139;SDS011;40046;53.254;5.900;2022-12-20T06:30:23;7.20;;;4.35;;
54139;SDS011;40046;53.254;5.900;2022-12-20T06:33:02;6.57;;;3.78;;
54139;SDS011;40046;53.254;5.900;2022-12-20T06:35:29;4.97;;;3.55;;
54139;SDS011;40046;53.254;5.900;2022-12-20T06:37:57;7.30;;;4.32;;
54139;SDS011;40046;53.254;5.900;2022-12-20T06:40:23;7.82;;;4.15;;
54139;SDS011;40046;53.254;5.900;2022-12-20T06:42:50;5.95;;;4.03;;
54139;SDS011;40046;53.254;5.900;2022-12-20T06:45:20;8.43;;;4.68;;
54139;SDS011;40046;53.254;5.900;2022-12-20T06:47:46;7.97;;;5.15;;
54139;SDS011;40046;53.254;5.900;2022-12-20T06:50:12;7.00;;;4.22;;
54139;SDS011;40046;53.254;5.900;2022-12-20T06:52:39;7.55;;;4.70;;
54139;SDS011;40046;53.254;5.900;2022-12-20T06:55:06;10.70;;;5.25;;
54139;SDS011;40046;53.254;5.900;2022-12-20T06:57:36;6.93;;;4.32;;
54139;SDS011;40046;53.254;5.900;2022-12-20T07:00:03;8.70;;;4.65;;
54139;SDS011;40046;53.254;5.900;2022-12-20T07:02:30;7.50;;;4.65;;
54139;SDS011;40046;53.254;5.900;2022-12-20T07:04:56;7.78;;;4.30;;
54139;SDS011;40046;53.254;5.900;2022-12-20T07:07:22;7.68;;;5.22;;
54139;SDS011;40046;53.254;5.900;2022-12-20T07:09:49;8.10;;;4.18;;
54139;SDS011;40046;53.254;5.900;2022-12-20T07:12:15;9.85;;;5.18;;
54139;SDS011;40046;53.254;5.900;2022-12-20T07:14:42;8.50;;;4.55;;
54139;SDS011;40046;53.254;5.900;2022-12-20T07:17:08;8.25;;;5.38;;
54139;SDS011;40046;53.254;5.900;2022-12-20T07:19:35;8.85;;;5.63;;
54139;SDS011;40046;53.254;5.900;2022-12-20T07:22:02;10.95;;;5.97;;
54139;SDS011;40046;53.254;5.900;2022-12-20T07:24:28;10.75;;;6.22;;
54139;SDS011;40046;53.254;5.900;2022-12-20T07:26:54;7.28;;;5.65;;
54139;SDS011;40046;53.254;5.900;2022-12-20T07:29:20;6.18;;;5.20;;
54139;SDS011;40046;53.254;5.900;2022-12-20T07:31:46;8.73;;;5.38;;
54139;SDS011;40046;53.254;5.900;2022-12-20T07:34:12;8.55;;;4.82;;
54139;SDS011;40046;53.254;5.900;2022-12-20T07:36:39;6.93;;;4.85;;
54139;SDS011;40046;53.254;5.900;2022-12-20T07:39:05;8.45;;;5.57;;
54139;SDS011;40046;53.254;5.900;2022-12-20T07:41:31;8.23;;;4.72;;
54139;SDS011;40046;53.254;5.900;2022-12-20T07:43:57;7.93;;;4.93;;
54139;SDS011;40046;53.254;5.900;2022-12-20T07:46:24;9.23;;;5.20;;
54139;SDS011;40046;53.254;5.900;2022-12-20T07:48:50;10.25;;;5.60;;
54139;SDS011;40046;53.254;5.900;2022-12-20T07:51:27;8.55;;;4.57;;
54139;SDS011;40046;53.254;5.900;2022-12-20T07:54:05;8.85;;;5.75;;
54139;SDS011;40046;53.254;5.900;2022-12-20T07:56:33;7.28;;;4.43;;
54139;SDS011;40046;53.254;5.900;2022-12-20T07:59:00;6.63;;;4.85;;
54139;SDS011;40046;53.254;5.900;2022-12-20T08:01:28;9.57;;;5.15;;
54139;SDS011;40046;53.254;5.900;2022-12-20T08:03:57;6.93;;;4.57;;
54139;SDS011;40046;53.254;5.900;2022-12-20T08:06:24;10.40;;;4.75;;
54139;SDS011;40046;53.254;5.900;2022-12-20T08:08:51;6.40;;;4.82;;
54139;SDS011;40046;53.254;5.900;2022-12-20T08:11:19;10.15;;;4.82;;
54139;SDS011;40046;53.254;5.900;2022-12-20T08:13:45;9.00;;;4.85;;
54139;SDS011;40046;53.254;5.900;2022-12-20T08:16:11;6.97;;;3.70;;
54139;SDS011;40046;53.254;5.900;2022-12-20T08:18:38;7.63;;;4.13;;
54139;SDS011;40046;53.254;5.900;2022-12-20T08:21:04;11.48;;;5.22;;
54139;SDS011;40046;53.254;5.900;2022-12-20T08:23:30;9.75;;;4.25;;
54139;SDS011;40046;53.254;5.900;2022-12-20T08:25:59;7.40;;;4.88;;
54139;SDS011;40046;53.254;5.900;2022-12-20T08:28:25;6.45;;;4.03;;
54139;SDS011;40046;53.254;5.900;2022-12-20T08:30:51;8.95;;;4.85;;
54139;SDS011;40046;53.254;5.900;2022-12-20T08:33:18;7.72;;;4.50;;
54139;SDS011;40046;53.254;5.900;2022-12-20T08:35:44;5.93;;;3.65;;
54139;SDS011;40046;53.254;5.900;2022-12-20T08:38:10;6.43;;;5.00;;
54139;SDS011;40046;53.254;5.900;2022-12-20T08:40:37;9.98;;;3.97;;
54139;SDS011;40046;53.254;5.900;2022-12-20T08:43:03;7.13;;;4.28;;
54139;SDS011;40046;53.254;5.900;2022-12-20T08:45:29;7.72;;;4.40;;
54139;SDS011;40046;53.254;5.900;2022-12-20T08:47:55;9.45;;;4.32;;
54139;SDS011;40046;53.254;5.900;2022-12-20T08:50:21;6.95;;;3.67;;
54139;SDS011;40046;53.254;5.900;2022-12-20T08:52:47;7.97;;;4.13;;
54139;SDS011;40046;53.254;5.900;2022-12-20T08:55:14;6.45;;;3.80;;
54139;SDS011;40046;53.254;5.900;2022-12-20T08:57:40;9.57;;;4.10;;
54139;SDS011;40046;53.254;5.900;2022-12-20T09:00:06;10.52;;;4.13;;
54139;SDS011;40046;53.254;5.900;2022-12-20T09:02:33;7.15;;;3.75;;
54139;SDS011;40046;53.254;5.900;2022-12-20T09:05:02;6.55;;;3.95;;
54139;SDS011;40046;53.254;5.900;2022-12-20T09:07:29;5.80;;;3.15;;
54139;SDS011;40046;53.254;5.900;2022-12-20T09:09:55;6.68;;;3.95;;
54139;SDS011;40046;53.254;5.900;2022-12-20T09:12:21;10.77;;;3.88;;
54139;SDS011;40046;53.254;5.900;2022-12-20T09:14:47;7.00;;;3.67;;
54139;SDS011;40046;53.254;5.900;2022-12-20T09:17:13;6.68;;;3.58;;
54139;SDS011;40046;53.254;5.900;2022-12-20T09:19:39;6.55;;;3.85;;
54139;SDS011;40046;53.254;5.900;2022-12-20T09:22:06;5.90;;;3.40;;
54139;SDS011;40046;53.254;5.900;2022-12-20T09:24:32;11.43;;;4.57;;
54139;SDS011;40046;53.254;5.900;2022-12-20T09:26:59;10.52;;;4.05;;
54139;SDS011;40046;53.254;5.900;2022-12-20T09:29:25;10.20;;;3.88;;
54139;SDS011;40046;53.254;5.900;2022-12-20T09:31:51;5.85;;;2.97;;
54139;SDS011;40046;53.254;5.900;2022-12-20T09:34:17;10.05;;;3.72;;
54139;SDS011;40046;53.254;5.900;2022-12-20T09:36:43;6.15;;;3.58;;
54139;SDS011;40046;53.254;5.900;2022-12-20T09:39:10;5.78;;;3.97;;
54139;SDS011;40046;53.254;5.900;2022-12-20T09:41:37;7.78;;;3.90;;
54139;SDS011;40046;53.254;5.900;2022-12-20T09:44:26;6.97;;;3.35;;
54139;SDS011;40046;53.254;5.900;2022-12-20T09:46:54;8.98;;;4.03;;
54139;SDS011;40046;53.254;5.900;2022-12-20T09:49:22;5.78;;;2.85;;
54139;SDS011;40046;53.254;5.900;2022-12-20T09:52:04;8.85;;;4.53;;
54139;SDS011;40046;53.254;5.900;2022-12-20T09:57:09;8.48;;;4.60;;
54139;SDS011;40046;53.254;5.900;2022-12-20T09:59:40;7.13;;;3.78;;
54139;SDS011;40046;53.254;5.900;2022-12-20T10:02:08;7.68;;;3.55;;
54139;SDS011;40046;53.254;5.900;2022-12-20T10:04:35;5.60;;;2.40;;
54139;SDS011;40046;53.254;5.900;2022-12-20T10:22:20;5.50;;;2.33;;
54139;SDS011;40046;53.254;5.900;2022-12-20T10:25:01;7.97;;;3.38;;
54139;SDS011;40046;53.254;5.900;2022-12-20T10:27:37;6.22;;;2.80;;
54139;SDS011;40046;53.254;5.900;2022-12-20T10:30:10;10.60;;;4.05;;
54139;SDS011;40046;53.254;5.900;2022-12-20T10:32:36;5.80;;;2.70;;
54139;SDS011;40046;53.254;5.900;2022-12-20T10:37:35;5.60;;;2.30;;
54139;SDS011;40046;53.254;5.900;2022-12-20T10:40:02;6.32;;;2.60;;
54139;SDS011;40046;53.254;5.900;2022-12-20T10:42:37;4.78;;;2.65;;
54139;SDS011;40046;53.254;5.900;2022-12-20T10:47:42;4.57;;;2.70;;
54139;SDS011;40046;53.254;5.900;2022-12-20T10:50:22;5.90;;;3.03;;
54139;SDS011;40046;53.254;5.900;2022-12-20T10:53:17;4.70;;;2.30;;
54139;SDS011;40046;53.254;5.900;2022-12-20T10:55:45;6.03;;;2.75;;
54139;SDS011;40046;53.254;5.900;2022-12-20T11:03:29;6.53;;;2.60;;
54139;SDS011;40046;53.254;5.900;2022-12-20T11:05:57;4.75;;;2.90;;
54139;SDS011;40046;53.254;5.900;2022-12-20T11:08:23;6.70;;;2.40;;
54139;SDS011;40046;53.254;5.900;2022-12-20T11:11:09;6.25;;;2.67;;
54139;SDS011;40046;53.254;5.900;2022-12-20T11:13:36;4.95;;;2.67;;
54139;SDS011;40046;53.254;5.900;2022-12-20T11:16:02;5.78;;;3.30;;
54139;SDS011;40046;53.254;5.900;2022-12-20T11:18:37;5.15;;;3.33;;
54139;SDS011;40046;53.254;5.900;2022-12-20T11:21:12;4.85;;;2.70;;
54139;SDS011;40046;53.254;5.900;2022-12-20T11:23:52;5.47;;;2.97;;
54139;SDS011;40046;53.254;5.900;2022-12-20T11:39:25;6.78;;;3.33;;
54139;SDS011;40046;53.254;5.900;2022-12-20T11:41:55;8.17;;;4.23;;
54139;SDS011;40046;53.254;5.900;2022-12-20T11:44:27;5.65;;;3.60;;
54139;SDS011;40046;53.254;5.900;2022-12-20T11:52:34;6.30;;;3.50;;
54139;SDS011;40046;53.254;5.900;2022-12-20T11:57:33;7.95;;;4.38;;
54139;SDS011;40046;53.254;5.900;2022-12-20T12:00:02;10.02;;;4.55;;
54139;SDS011;40046;53.254;5.900;2022-12-20T12:05:20;10.02;;;3.78;;
54139;SDS011;40046;53.254;5.900;2022-12-20T12:07:52;10.48;;;3.90;;
54139;SDS011;40046;53.254;5.900;2022-12-20T12:10:20;7.47;;;4.32;;
54139;SDS011;40046;53.254;5.900;2022-12-20T12:12:59;6.78;;;4.15;;
54139;SDS011;40046;53.254;5.900;2022-12-20T12:18:07;9.05;;;4.18;;
54139;SDS011;40046;53.254;5.900;2022-12-20T12:26:42;11.77;;;5.43;;
54139;SDS011;40046;53.254;5.900;2022-12-20T12:29:16;7.55;;;4.35;;
54139;SDS011;40046;53.254;5.900;2022-12-20T12:44:58;9.10;;;4.82;;
54139;SDS011;40046;53.254;5.900;2022-12-20T12:47:36;7.53;;;4.72;;
54139;SDS011;40046;53.254;5.900;2022-12-20T12:50:05;7.75;;;5.10;;
54139;SDS011;40046;53.254;5.900;2022-12-20T12:52:41;12.05;;;5.00;;
54139;SDS011;40046;53.254;5.900;2022-12-20T12:57:55;7.32;;;5.43;;
54139;SDS011;40046;53.254;5.900;2022-12-20T13:03:13;11.52;;;5.40;;
54139;SDS011;40046;53.254;5.900;2022-12-20T13:05:41;8.52;;;5.78;;
54139;SDS011;40046;53.254;5.900;2022-12-20T13:08:16;8.25;;;5.30;;
54139;SDS011;40046;53.254;5.900;2022-12-20T13:13:13;9.73;;;5.13;;
54139;SDS011;40046;53.254;5.900;2022-12-20T13:15:45;8.73;;;5.20;;
54139;SDS011;40046;53.254;5.900;2022-12-20T13:20:38;7.50;;;6.05;;
54139;SDS011;40046;53.254;5.900;2022-12-20T13:25:40;9.07;;;5.63;;
54139;SDS011;40046;53.254;5.900;2022-12-20T13:31:28;10.20;;;6.57;;
54139;SDS011;40046;53.254;5.900;2022-12-20T13:33:45;9.60;;;6.82;;
54139;SDS011;40046;53.254;5.900;2022-12-20T13:41:11;10.05;;;6.75;;
54139;SDS011;40046;53.254;5.900;2022-12-20T13:43:41;8.98;;;5.57;;
54139;SDS011;40046;53.254;5.900;2022-12-20T13:48:41;11.82;;;7.10;;
54139;SDS011;40046;53.254;5.900;2022-12-20T13:51:15;10.63;;;7.50;;
54139;SDS011;40046;53.254;5.900;2022-12-20T13:53:50;13.70;;;7.95;;
54139;SDS011;40046;53.254;5.900;2022-12-20T13:58:56;12.80;;;7.95;;
54139;SDS011;40046;53.254;5.900;2022-12-20T14:01:23;10.20;;;8.15;;
54139;SDS011;40046;53.254;5.900;2022-12-20T14:03:50;12.55;;;7.90;;
54139;SDS011;40046;53.254;5.900;2022-12-20T14:06:18;8.48;;;7.57;;
54139;SDS011;40046;53.254;5.900;2022-12-20T14:08:49;13.27;;;8.57;;
54139;SDS011;40046;53.254;5.900;2022-12-20T14:11:16;12.30;;;9.10;;
54139;SDS011;40046;53.254;5.900;2022-12-20T14:13:50;10.00;;;8.63;;
54139;SDS011;40046;53.254;5.900;2022-12-20T14:18:50;14.75;;;8.35;;
54139;SDS011;40046;53.254;5.900;2022-12-20T14:21:24;11.75;;;9.00;;
54139;SDS011;40046;53.254;5.900;2022-12-20T14:23:51;13.18;;;9.38;;
54139;SDS011;40046;53.254;5.900;2022-12-20T14:26:23;14.88;;;9.65;;
54139;SDS011;40046;53.254;5.900;2022-12-20T14:28:50;13.23;;;10.07;;
54139;SDS011;40046;53.254;5.900;2022-12-20T14:36:30;13.38;;;10.57;;
54139;SDS011;40046;53.254;5.900;2022-12-20T14:38:57;14.88;;;10.93;;
54139;SDS011;40046;53.254;5.900;2022-12-20T14:43:57;16.77;;;12.75;;
54139;SDS011;40046;53.254;5.900;2022-12-20T14:46:24;17.45;;;11.98;;
54139;SDS011;40046;53.254;5.900;2022-12-20T14:49:15;19.42;;;12.50;;
54139;SDS011;40046;53.254;5.900;2022-12-20T14:51:42;16.73;;;12.35;;
54139;SDS011;40046;53.254;5.900;2022-12-20T14:54:12;20.05;;;12.45;;
54139;SDS011;40046;53.254;5.900;2022-12-20T14:56:43;16.30;;;12.88;;
54139;SDS011;40046;53.254;5.900;2022-12-20T14:59:12;17.88;;;12.75;;
54139;SDS011;40046;53.254;5.900;2022-12-20T15:01:39;16.92;;;13.02;;
54139;SDS011;40046;53.254;5.900;2022-12-20T15:04:19;19.98;;;12.55;;
54139;SDS011;40046;53.254;5.900;2022-12-20T15:06:46;18.35;;;13.38;;
54139;SDS011;40046;53.254;5.900;2022-12-20T15:09:13;19.33;;;12.98;;
54139;SDS011;40046;53.254;5.900;2022-12-20T15:11:40;19.48;;;13.27;;
54139;SDS011;40046;53.254;5.900;2022-12-20T15:16:45;17.15;;;12.70;;
54139;SDS011;40046;53.254;5.900;2022-12-20T15:19:12;21.42;;;16.10;;
54139;SDS011;40046;53.254;5.900;2022-12-20T15:21:41;17.65;;;13.70;;
54139;SDS011;40046;53.254;5.900;2022-12-20T15:24:10;19.58;;;14.13;;
54139;SDS011;40046;53.254;5.900;2022-12-20T15:26:37;24.70;;;13.75;;
54139;SDS011;40046;53.254;5.900;2022-12-20T15:29:03;18.83;;;12.98;;
54139;SDS011;40046;53.254;5.900;2022-12-20T15:31:30;27.20;;;14.95;;
54139;SDS011;40046;53.254;5.900;2022-12-20T15:33:57;16.15;;;14.02;;
54139;SDS011;40046;53.254;5.900;2022-12-20T15:36:25;19.33;;;14.48;;
54139;SDS011;40046;53.254;5.900;2022-12-20T15:38:52;19.90;;;14.18;;
54139;SDS011;40046;53.254;5.900;2022-12-20T15:41:20;20.40;;;13.90;;
54139;SDS011;40046;53.254;5.900;2022-12-20T15:43:47;16.17;;;12.82;;
54139;SDS011;40046;53.254;5.900;2022-12-20T15:46:15;16.75;;;13.65;;
54139;SDS011;40046;53.254;5.900;2022-12-20T15:48:41;20.48;;;14.60;;
54139;SDS011;40046;53.254;5.900;2022-12-20T15:51:15;18.60;;;15.10;;
54139;SDS011;40046;53.254;5.900;2022-12-20T15:53:44;18.27;;;13.98;;
54139;SDS011;40046;53.254;5.900;2022-12-20T15:56:13;20.05;;;14.40;;
54139;SDS011;40046;53.254;5.900;2022-12-20T15:58:41;19.20;;;14.88;;
54139;SDS011;40046;53.254;5.900;2022-12-20T16:01:07;17.23;;;15.18;;
54139;SDS011;40046;53.254;5.900;2022-12-20T16:03:34;22.75;;;17.52;;
54139;SDS011;40046;53.254;5.900;2022-12-20T16:06:00;18.90;;;15.45;;
54139;SDS011;40046;53.254;5.900;2022-12-20T16:08:26;25.92;;;18.00;;
54139;SDS011;40046;53.254;5.900;2022-12-20T16:10:52;23.70;;;18.38;;
54139;SDS011;40046;53.254;5.900;2022-12-20T16:13:23;21.52;;;17.25;;
54139;SDS011;40046;53.254;5.900;2022-12-20T16:15:50;23.08;;;18.77;;
54139;SDS011;40046;53.254;5.900;2022-12-20T16:18:16;22.38;;;17.85;;
54139;SDS011;40046;53.254;5.900;2022-12-20T16:20:42;30.98;;;19.33;;
54139;SDS011;40046;53.254;5.900;2022-12-20T16:23:16;22.83;;;17.88;;
54139;SDS011;40046;53.254;5.900;2022-12-20T16:25:43;25.48;;;18.35;;
54139;SDS011;40046;53.254;5.900;2022-12-20T16:28:09;27.05;;;18.33;;
54139;SDS011;40046;53.254;5.900;2022-12-20T16:30:35;23.60;;;18.38;;
54139;SDS011;40046;53.254;5.900;2022-12-20T16:33:02;23.63;;;18.92;;
54139;SDS011;40046;53.254;5.900;2022-12-20T16:35:30;21.17;;;18.25;;
54139;SDS011;40046;53.254;5.900;2022-12-20T16:37:57;27.42;;;19.67;;
54139;SDS011;40046;53.254;5.900;2022-12-20T16:40:24;23.95;;;17.23;;
54139;SDS011;40046;53.254;5.900;2022-12-20T16:42:51;23.92;;;19.02;;
54139;SDS011;40046;53.254;5.900;2022-12-20T16:45:24;26.52;;;18.95;;
54139;SDS011;40046;53.254;5.900;2022-12-20T16:47:51;36.90;;;18.67;;
54139;SDS011;40046;53.254;5.900;2022-12-20T16:50:18;27.88;;;19.95;;
54139;SDS011;40046;53.254;5.900;2022-12-20T16:52:44;25.17;;;19.02;;
54139;SDS011;40046;53.254;5.900;2022-12-20T16:55:12;24.70;;;20.02;;